sensor_id;sensor_type;location;lat;lon;timestamp;temperature;humidity
38941;DHT22;43236;47.208;7.518;2022-07-29T00:00:42;23.00;99.90
38941;DHT22;43236;47.208;7.518;2022-07-29T00:03:31;23.00;99.90
38941;DHT22;43236;47.208;7.518;2022-07-29T00:06:18;23.00;99.90
38941;DHT22;43236;47.208;7.518;2022-07-29T00:09:06;23.00;99.90
38941;DHT22;43236;47.208;7.518;2022-07-29T00:11:55;23.00;99.90
38941;DHT22;43236;47.208;7.518;2022-07-29T00:14:43;23.00;99.90
38941;DHT22;43236;47.208;7.518;2022-07-29T00:17:30;23.00;99.90
38941;DHT22;43236;47.208;7.518;2022-07-29T00:20:19;22.90;99.90
38941;DHT22;43236;47.208;7.518;2022-07-29T00:23:06;22.90;99.90
38941;DHT22;43236;47.208;7.518;2022-07-29T00:25:53;22.90;99.90
38941;DHT22;43236;47.208;7.518;2022-07-29T00:28:40;22.90;99.90
38941;DHT22;43236;47.208;7.518;2022-07-29T00:31:27;22.80;99.90
38941;DHT22;43236;47.208;7.518;2022-07-29T00:34:14;22.80;99.90
38941;DHT22;43236;47.208;7.518;2022-07-29T00:37:16;22.80;99.90
38941;DHT22;43236;47.208;7.518;2022-07-29T00:40:04;22.80;99.90
38941;DHT22;43236;47.208;7.518;2022-07-29T00:42:52;22.80;99.90
38941;DHT22;43236;47.208;7.518;2022-07-29T00:45:39;22.90;99.90
38941;DHT22;43236;47.208;7.518;2022-07-29T00:48:26;22.90;99.90
38941;DHT22;43236;47.208;7.518;2022-07-29T00:51:14;22.90;99.90
38941;DHT22;43236;47.208;7.518;2022-07-29T00:54:03;22.90;99.90
38941;DHT22;43236;47.208;7.518;2022-07-29T00:56:51;22.90;99.90
38941;DHT22;43236;47.208;7.518;2022-07-29T00:59:38;22.80;99.90
38941;DHT22;43236;47.208;7.518;2022-07-29T01:02:25;22.90;99.90
38941;DHT22;43236;47.208;7.518;2022-07-29T01:05:12;22.90;99.90
38941;DHT22;43236;47.208;7.518;2022-07-29T01:08:00;22.90;99.90
38941;DHT22;43236;47.208;7.518;2022-07-29T01:10:49;22.90;99.90
38941;DHT22;43236;47.208;7.518;2022-07-29T01:13:38;22.90;99.90
38941;DHT22;43236;47.208;7.518;2022-07-29T01:16:28;22.90;99.90
38941;DHT22;43236;47.208;7.518;2022-07-29T01:19:32;22.90;99.90
38941;DHT22;43236;47.208;7.518;2022-07-29T01:22:28;22.90;99.90
38941;DHT22;43236;47.208;7.518;2022-07-29T01:25:45;22.90;99.90
38941;DHT22;43236;47.208;7.518;2022-07-29T01:28:55;22.90;99.90
38941;DHT22;43236;47.208;7.518;2022-07-29T01:31:51;22.80;99.90
38941;DHT22;43236;47.208;7.518;2022-07-29T01:34:44;22.80;99.90
38941;DHT22;43236;47.208;7.518;2022-07-29T01:37:43;22.90;99.90
38941;DHT22;43236;47.208;7.518;2022-07-29T01:40:34;22.80;99.90
38941;DHT22;43236;47.208;7.518;2022-07-29T01:43:29;22.80;99.90
38941;DHT22;43236;47.208;7.518;2022-07-29T01:46:23;22.80;99.90
38941;DHT22;43236;47.208;7.518;2022-07-29T01:49:15;22.80;99.90
38941;DHT22;43236;47.208;7.518;2022-07-29T01:52:07;22.80;99.90
38941;DHT22;43236;47.208;7.518;2022-07-29T01:54:58;22.80;99.90
38941;DHT22;43236;47.208;7.518;2022-07-29T01:57:46;22.70;99.90
38941;DHT22;43236;47.208;7.518;2022-07-29T02:00:34;22.70;99.90
38941;DHT22;43236;47.208;7.518;2022-07-29T02:03:24;22.70;99.90
38941;DHT22;43236;47.208;7.518;2022-07-29T02:06:16;22.70;99.90
38941;DHT22;43236;47.208;7.518;2022-07-29T02:09:05;22.70;99.90
38941;DHT22;43236;47.208;7.518;2022-07-29T02:11:54;22.70;99.90
38941;DHT22;43236;47.208;7.518;2022-07-29T02:14:53;22.70;99.90
38941;DHT22;43236;47.208;7.518;2022-07-29T02:17:43;22.70;99.90
38941;DHT22;43236;47.208;7.518;2022-07-29T02:20:32;22.80;99.90
38941;DHT22;43236;47.208;7.518;2022-07-29T02:23:21;22.80;99.90
38941;DHT22;43236;47.208;7.518;2022-07-29T02:26:09;22.80;99.90
38941;DHT22;43236;47.208;7.518;2022-07-29T02:28:57;22.80;99.90
38941;DHT22;43236;47.208;7.518;2022-07-29T02:31:46;22.70;99.90
38941;DHT22;43236;47.208;7.518;2022-07-29T02:34:35;22.70;99.90
38941;DHT22;43236;47.208;7.518;2022-07-29T02:37:27;22.70;99.90
38941;DHT22;43236;47.208;7.518;2022-07-29T02:40:15;22.70;99.90
38941;DHT22;43236;47.208;7.518;2022-07-29T02:43:05;22.60;99.90
38941;DHT22;43236;47.208;7.518;2022-07-29T02:45:53;22.60;99.90
38941;DHT22;43236;47.208;7.518;2022-07-29T02:48:50;22.60;99.90
38941;DHT22;43236;47.208;7.518;2022-07-29T02:51:43;22.60;99.90
38941;DHT22;43236;47.208;7.518;2022-07-29T02:54:37;22.50;99.90
38941;DHT22;43236;47.208;7.518;2022-07-29T02:57:32;22.60;99.90
38941;DHT22;43236;47.208;7.518;2022-07-29T03:00:21;22.50;99.90
38941;DHT22;43236;47.208;7.518;2022-07-29T03:03:13;22.50;99.90
38941;DHT22;43236;47.208;7.518;2022-07-29T03:06:02;22.50;99.90
38941;DHT22;43236;47.208;7.518;2022-07-29T03:08:50;22.50;99.90
38941;DHT22;43236;47.208;7.518;2022-07-29T03:11:40;22.50;99.90
38941;DHT22;43236;47.208;7.518;2022-07-29T03:14:28;22.50;99.90
38941;DHT22;43236;47.208;7.518;2022-07-29T03:17:15;22.50;99.90
38941;DHT22;43236;47.208;7.518;2022-07-29T03:20:03;22.50;99.90
38941;DHT22;43236;47.208;7.518;2022-07-29T03:22:50;22.50;99.90
38941;DHT22;43236;47.208;7.518;2022-07-29T03:25:37;22.50;99.90
38941;DHT22;43236;47.208;7.518;2022-07-29T03:28:26;22.50;99.90
38941;DHT22;43236;47.208;7.518;2022-07-29T03:31:13;22.50;99.90
38941;DHT22;43236;47.208;7.518;2022-07-29T03:34:00;22.50;99.90
38941;DHT22;43236;47.208;7.518;2022-07-29T03:36:47;22.40;99.90
38941;DHT22;43236;47.208;7.518;2022-07-29T03:39:38;22.40;99.90
38941;DHT22;43236;47.208;7.518;2022-07-29T03:42:31;22.40;99.90
38941;DHT22;43236;47.208;7.518;2022-07-29T03:45:20;22.40;99.90
38941;DHT22;43236;47.208;7.518;2022-07-29T03:48:10;22.30;99.90
38941;DHT22;43236;47.208;7.518;2022-07-29T03:50:59;22.30;99.90
38941;DHT22;43236;47.208;7.518;2022-07-29T03:53:46;22.30;99.90
38941;DHT22;43236;47.208;7.518;2022-07-29T03:56:38;22.20;99.90
38941;DHT22;43236;47.208;7.518;2022-07-29T03:59:27;22.20;99.90
38941;DHT22;43236;47.208;7.518;2022-07-29T04:02:15;22.20;99.90
38941;DHT22;43236;47.208;7.518;2022-07-29T04:05:03;22.20;99.90
38941;DHT22;43236;47.208;7.518;2022-07-29T04:07:50;22.20;99.90
38941;DHT22;43236;47.208;7.518;2022-07-29T04:10:38;22.20;99.90
38941;DHT22;43236;47.208;7.518;2022-07-29T04:13:25;22.20;99.90
38941;DHT22;43236;47.208;7.518;2022-07-29T04:16:12;22.20;99.90
38941;DHT22;43236;47.208;7.518;2022-07-29T04:19:00;22.20;99.90
38941;DHT22;43236;47.208;7.518;2022-07-29T04:21:48;22.20;99.90
38941;DHT22;43236;47.208;7.518;2022-07-29T04:24:35;22.20;99.90
38941;DHT22;43236;47.208;7.518;2022-07-29T04:27:22;22.10;99.90
38941;DHT22;43236;47.208;7.518;2022-07-29T04:30:10;22.10;99.90
38941;DHT22;43236;47.208;7.518;2022-07-29T04:32:58;22.10;99.90
38941;DHT22;43236;47.208;7.518;2022-07-29T04:35:47;22.10;99.90
38941;DHT22;43236;47.208;7.518;2022-07-29T04:38:34;22.10;99.90
38941;DHT22;43236;47.208;7.518;2022-07-29T04:41:22;22.10;99.90
38941;DHT22;43236;47.208;7.518;2022-07-29T04:44:09;22.10;99.90
38941;DHT22;43236;47.208;7.518;2022-07-29T04:46:56;22.10;99.90
38941;DHT22;43236;47.208;7.518;2022-07-29T04:49:43;22.20;99.90
38941;DHT22;43236;47.208;7.518;2022-07-29T04:52:32;22.20;99.90
38941;DHT22;43236;47.208;7.518;2022-07-29T04:55:20;22.20;99.90
38941;DHT22;43236;47.208;7.518;2022-07-29T04:58:07;22.20;99.90
38941;DHT22;43236;47.208;7.518;2022-07-29T05:00:54;22.20;99.90
38941;DHT22;43236;47.208;7.518;2022-07-29T05:03:41;22.20;99.90
38941;DHT22;43236;47.208;7.518;2022-07-29T05:06:29;22.20;99.90
38941;DHT22;43236;47.208;7.518;2022-07-29T05:09:18;22.20;99.90
38941;DHT22;43236;47.208;7.518;2022-07-29T05:12:06;22.20;99.90
38941;DHT22;43236;47.208;7.518;2022-07-29T05:14:53;22.20;99.90
38941;DHT22;43236;47.208;7.518;2022-07-29T05:17:40;22.20;99.90
38941;DHT22;43236;47.208;7.518;2022-07-29T05:20:27;22.20;99.90
38941;DHT22;43236;47.208;7.518;2022-07-29T05:23:15;22.20;99.90
38941;DHT22;43236;47.208;7.518;2022-07-29T05:26:03;22.20;99.90
38941;DHT22;43236;47.208;7.518;2022-07-29T05:28:50;22.20;99.90
38941;DHT22;43236;47.208;7.518;2022-07-29T05:31:37;22.30;99.90
38941;DHT22;43236;47.208;7.518;2022-07-29T05:34:24;22.30;99.90
38941;DHT22;43236;47.208;7.518;2022-07-29T05:37:12;22.30;99.90
38941;DHT22;43236;47.208;7.518;2022-07-29T05:39:59;22.30;99.90
38941;DHT22;43236;47.208;7.518;2022-07-29T05:42:47;22.30;99.90
38941;DHT22;43236;47.208;7.518;2022-07-29T05:45:35;22.40;99.90
38941;DHT22;43236;47.208;7.518;2022-07-29T05:48:22;22.40;99.90
38941;DHT22;43236;47.208;7.518;2022-07-29T05:51:10;22.40;99.90
38941;DHT22;43236;47.208;7.518;2022-07-29T05:53:57;22.40;99.90
38941;DHT22;43236;47.208;7.518;2022-07-29T05:56:44;22.40;99.90
38941;DHT22;43236;47.208;7.518;2022-07-29T05:59:35;22.60;99.90
38941;DHT22;43236;47.208;7.518;2022-07-29T06:02:22;22.50;99.90
38941;DHT22;43236;47.208;7.518;2022-07-29T06:05:09;22.50;99.90
38941;DHT22;43236;47.208;7.518;2022-07-29T06:07:56;22.50;99.90
38941;DHT22;43236;47.208;7.518;2022-07-29T06:10:43;22.60;99.90
38941;DHT22;43236;47.208;7.518;2022-07-29T06:13:31;22.60;99.90
38941;DHT22;43236;47.208;7.518;2022-07-29T06:16:19;22.60;99.90
38941;DHT22;43236;47.208;7.518;2022-07-29T06:19:06;22.60;99.90
38941;DHT22;43236;47.208;7.518;2022-07-29T06:21:53;22.70;99.90
38941;DHT22;43236;47.208;7.518;2022-07-29T06:24:41;22.70;99.90
38941;DHT22;43236;47.208;7.518;2022-07-29T06:27:29;22.70;99.90
38941;DHT22;43236;47.208;7.518;2022-07-29T06:30:16;22.70;99.90
38941;DHT22;43236;47.208;7.518;2022-07-29T06:33:05;22.70;99.90
38941;DHT22;43236;47.208;7.518;2022-07-29T06:35:52;22.80;99.90
38941;DHT22;43236;47.208;7.518;2022-07-29T06:38:39;22.80;99.90
38941;DHT22;43236;47.208;7.518;2022-07-29T06:41:26;22.80;99.90
38941;DHT22;43236;47.208;7.518;2022-07-29T06:44:13;22.90;99.90
38941;DHT22;43236;47.208;7.518;2022-07-29T06:47:01;22.90;99.90
38941;DHT22;43236;47.208;7.518;2022-07-29T06:49:49;22.90;99.90
38941;DHT22;43236;47.208;7.518;2022-07-29T06:52:36;22.90;99.90
38941;DHT22;43236;47.208;7.518;2022-07-29T06:55:23;22.90;99.90
38941;DHT22;43236;47.208;7.518;2022-07-29T06:58:10;23.00;99.90
38941;DHT22;43236;47.208;7.518;2022-07-29T07:00:58;23.00;99.90
38941;DHT22;43236;47.208;7.518;2022-07-29T07:03:45;23.00;99.90
38941;DHT22;43236;47.208;7.518;2022-07-29T07:06:34;23.00;99.90
38941;DHT22;43236;47.208;7.518;2022-07-29T07:09:21;23.00;99.90
38941;DHT22;43236;47.208;7.518;2022-07-29T07:12:08;23.00;99.90
38941;DHT22;43236;47.208;7.518;2022-07-29T07:14:55;23.00;99.90
38941;DHT22;43236;47.208;7.518;2022-07-29T07:17:42;23.00;99.90
38941;DHT22;43236;47.208;7.518;2022-07-29T07:20:29;23.00;99.90
38941;DHT22;43236;47.208;7.518;2022-07-29T07:23:18;23.00;99.90
38941;DHT22;43236;47.208;7.518;2022-07-29T07:26:05;23.10;99.90
38941;DHT22;43236;47.208;7.518;2022-07-29T07:28:52;23.20;99.90
38941;DHT22;43236;47.208;7.518;2022-07-29T07:31:39;23.30;99.90
38941;DHT22;43236;47.208;7.518;2022-07-29T07:34:27;23.30;99.90
38941;DHT22;43236;47.208;7.518;2022-07-29T07:37:14;23.30;99.90
38941;DHT22;43236;47.208;7.518;2022-07-29T07:40:03;23.30;99.90
38941;DHT22;43236;47.208;7.518;2022-07-29T07:42:50;23.30;99.90
38941;DHT22;43236;47.208;7.518;2022-07-29T07:45:37;23.30;99.90
38941;DHT22;43236;47.208;7.518;2022-07-29T07:48:25;23.40;99.90
38941;DHT22;43236;47.208;7.518;2022-07-29T07:51:12;23.40;99.90
38941;DHT22;43236;47.208;7.518;2022-07-29T07:54:00;23.40;99.90
38941;DHT22;43236;47.208;7.518;2022-07-29T07:56:48;23.50;99.90
38941;DHT22;43236;47.208;7.518;2022-07-29T07:59:36;23.60;99.90
38941;DHT22;43236;47.208;7.518;2022-07-29T08:02:23;23.60;99.90
38941;DHT22;43236;47.208;7.518;2022-07-29T08:05:11;23.70;99.90
38941;DHT22;43236;47.208;7.518;2022-07-29T08:08:01;23.60;99.90
38941;DHT22;43236;47.208;7.518;2022-07-29T08:10:48;23.70;99.90
38941;DHT22;43236;47.208;7.518;2022-07-29T08:13:43;23.70;99.90
38941;DHT22;43236;47.208;7.518;2022-07-29T08:16:30;23.80;99.90
38941;DHT22;43236;47.208;7.518;2022-07-29T08:19:18;23.80;99.90
38941;DHT22;43236;47.208;7.518;2022-07-29T08:22:05;23.90;99.90
38941;DHT22;43236;47.208;7.518;2022-07-29T08:24:52;24.00;99.90
38941;DHT22;43236;47.208;7.518;2022-07-29T08:27:39;24.00;99.90
38941;DHT22;43236;47.208;7.518;2022-07-29T08:30:28;24.10;99.90
38941;DHT22;43236;47.208;7.518;2022-07-29T08:33:15;24.20;99.90
38941;DHT22;43236;47.208;7.518;2022-07-29T08:36:03;24.30;99.90
38941;DHT22;43236;47.208;7.518;2022-07-29T08:38:50;24.40;99.90
38941;DHT22;43236;47.208;7.518;2022-07-29T08:41:37;24.50;99.90
38941;DHT22;43236;47.208;7.518;2022-07-29T08:44:24;24.70;99.90
38941;DHT22;43236;47.208;7.518;2022-07-29T08:47:15;24.70;99.90
38941;DHT22;43236;47.208;7.518;2022-07-29T08:50:02;24.70;99.90
38941;DHT22;43236;47.208;7.518;2022-07-29T08:52:50;24.80;99.90
38941;DHT22;43236;47.208;7.518;2022-07-29T08:55:39;24.80;99.90
38941;DHT22;43236;47.208;7.518;2022-07-29T08:58:27;24.80;99.90
38941;DHT22;43236;47.208;7.518;2022-07-29T09:01:22;24.90;99.90
38941;DHT22;43236;47.208;7.518;2022-07-29T09:04:12;25.00;99.90
38941;DHT22;43236;47.208;7.518;2022-07-29T09:07:02;25.10;99.90
38941;DHT22;43236;47.208;7.518;2022-07-29T09:09:50;25.20;99.90
38941;DHT22;43236;47.208;7.518;2022-07-29T09:12:37;25.20;99.90
38941;DHT22;43236;47.208;7.518;2022-07-29T09:15:25;25.30;99.90
38941;DHT22;43236;47.208;7.518;2022-07-29T09:18:13;25.40;99.90
38941;DHT22;43236;47.208;7.518;2022-07-29T09:21:20;25.50;99.90
38941;DHT22;43236;47.208;7.518;2022-07-29T09:24:27;25.60;99.90
38941;DHT22;43236;47.208;7.518;2022-07-29T09:27:24;25.70;99.90
38941;DHT22;43236;47.208;7.518;2022-07-29T09:30:14;25.70;98.00
38941;DHT22;43236;47.208;7.518;2022-07-29T09:33:02;25.80;98.20
38941;DHT22;43236;47.208;7.518;2022-07-29T09:35:59;25.80;98.50
38941;DHT22;43236;47.208;7.518;2022-07-29T09:38:57;25.80;97.70
38941;DHT22;43236;47.208;7.518;2022-07-29T09:41:49;25.80;97.80
38941;DHT22;43236;47.208;7.518;2022-07-29T09:44:43;25.80;99.10
38941;DHT22;43236;47.208;7.518;2022-07-29T09:47:41;25.80;99.10
38941;DHT22;43236;47.208;7.518;2022-07-29T09:50:37;25.80;98.70
38941;DHT22;43236;47.208;7.518;2022-07-29T09:53:32;25.70;97.90
38941;DHT22;43236;47.208;7.518;2022-07-29T09:56:38;25.80;98.30
38941;DHT22;43236;47.208;7.518;2022-07-29T09:59:25;25.80;97.80
38941;DHT22;43236;47.208;7.518;2022-07-29T10:02:12;25.80;98.60
38941;DHT22;43236;47.208;7.518;2022-07-29T10:05:00;25.90;97.70
38941;DHT22;43236;47.208;7.518;2022-07-29T10:07:49;25.90;97.50
38941;DHT22;43236;47.208;7.518;2022-07-29T10:10:38;25.90;95.30
38941;DHT22;43236;47.208;7.518;2022-07-29T10:13:27;25.90;96.30
38941;DHT22;43236;47.208;7.518;2022-07-29T10:16:15;26.00;96.80
38941;DHT22;43236;47.208;7.518;2022-07-29T10:19:02;26.00;96.00
38941;DHT22;43236;47.208;7.518;2022-07-29T10:21:50;26.10;95.80
38941;DHT22;43236;47.208;7.518;2022-07-29T10:24:38;26.20;95.40
38941;DHT22;43236;47.208;7.518;2022-07-29T10:27:25;26.20;96.00
38941;DHT22;43236;47.208;7.518;2022-07-29T10:30:15;26.20;96.40
38941;DHT22;43236;47.208;7.518;2022-07-29T10:33:15;26.30;96.20
38941;DHT22;43236;47.208;7.518;2022-07-29T10:36:18;26.30;96.00
38941;DHT22;43236;47.208;7.518;2022-07-29T10:39:17;26.30;95.50
38941;DHT22;43236;47.208;7.518;2022-07-29T10:42:13;26.30;95.50
38941;DHT22;43236;47.208;7.518;2022-07-29T10:45:04;26.20;95.00
38941;DHT22;43236;47.208;7.518;2022-07-29T10:48:04;26.20;94.90
38941;DHT22;43236;47.208;7.518;2022-07-29T10:50:53;26.10;95.70
38941;DHT22;43236;47.208;7.518;2022-07-29T10:53:48;26.20;94.90
38941;DHT22;43236;47.208;7.518;2022-07-29T10:56:35;26.20;95.10
38941;DHT22;43236;47.208;7.518;2022-07-29T10:59:25;26.40;95.90
38941;DHT22;43236;47.208;7.518;2022-07-29T11:02:41;26.40;94.50
38941;DHT22;43236;47.208;7.518;2022-07-29T11:05:54;26.50;94.70
38941;DHT22;43236;47.208;7.518;2022-07-29T11:08:42;26.50;94.00
38941;DHT22;43236;47.208;7.518;2022-07-29T11:11:32;26.50;93.30
38941;DHT22;43236;47.208;7.518;2022-07-29T11:14:54;26.60;93.80
38941;DHT22;43236;47.208;7.518;2022-07-29T11:18:03;26.60;93.10
38941;DHT22;43236;47.208;7.518;2022-07-29T11:20:51;26.60;92.60
38941;DHT22;43236;47.208;7.518;2022-07-29T11:23:39;26.50;92.60
38941;DHT22;43236;47.208;7.518;2022-07-29T11:26:29;26.50;92.60
38941;DHT22;43236;47.208;7.518;2022-07-29T11:29:19;26.50;93.20
38941;DHT22;43236;47.208;7.518;2022-07-29T11:32:09;26.50;93.00
38941;DHT22;43236;47.208;7.518;2022-07-29T11:35:14;26.40;93.00
38941;DHT22;43236;47.208;7.518;2022-07-29T11:38:27;26.40;93.30
38941;DHT22;43236;47.208;7.518;2022-07-29T11:41:24;26.30;93.30
38941;DHT22;43236;47.208;7.518;2022-07-29T11:44:11;26.10;93.00
38941;DHT22;43236;47.208;7.518;2022-07-29T11:47:01;26.10;93.80
38941;DHT22;43236;47.208;7.518;2022-07-29T11:49:50;26.10;93.30
38941;DHT22;43236;47.208;7.518;2022-07-29T11:52:39;26.10;93.00
38941;DHT22;43236;47.208;7.518;2022-07-29T11:55:32;26.10;91.00
38941;DHT22;43236;47.208;7.518;2022-07-29T11:58:21;26.10;89.80
38941;DHT22;43236;47.208;7.518;2022-07-29T12:01:13;26.00;88.50
38941;DHT22;43236;47.208;7.518;2022-07-29T12:04:04;26.00;87.80
38941;DHT22;43236;47.208;7.518;2022-07-29T12:06:53;26.10;88.90
38941;DHT22;43236;47.208;7.518;2022-07-29T12:09:49;26.10;87.70
38941;DHT22;43236;47.208;7.518;2022-07-29T12:12:38;26.10;86.50
38941;DHT22;43236;47.208;7.518;2022-07-29T12:15:25;26.10;86.80
38941;DHT22;43236;47.208;7.518;2022-07-29T12:18:15;26.20;86.50
38941;DHT22;43236;47.208;7.518;2022-07-29T12:21:03;26.20;86.20
38941;DHT22;43236;47.208;7.518;2022-07-29T12:23:52;26.20;86.50
38941;DHT22;43236;47.208;7.518;2022-07-29T12:26:49;26.20;88.10
38941;DHT22;43236;47.208;7.518;2022-07-29T12:29:37;26.10;88.50
38941;DHT22;43236;47.208;7.518;2022-07-29T12:32:31;26.10;90.00
38941;DHT22;43236;47.208;7.518;2022-07-29T12:35:19;26.10;90.50
38941;DHT22;43236;47.208;7.518;2022-07-29T12:38:08;26.00;90.60
38941;DHT22;43236;47.208;7.518;2022-07-29T12:40:56;26.00;91.20
38941;DHT22;43236;47.208;7.518;2022-07-29T12:43:52;26.00;91.70
38941;DHT22;43236;47.208;7.518;2022-07-29T12:46:41;26.00;92.70
38941;DHT22;43236;47.208;7.518;2022-07-29T12:49:28;26.00;92.80
38941;DHT22;43236;47.208;7.518;2022-07-29T12:52:28;26.10;92.50
38941;DHT22;43236;47.208;7.518;2022-07-29T12:55:15;26.00;91.50
38941;DHT22;43236;47.208;7.518;2022-07-29T12:58:02;26.10;92.50
38941;DHT22;43236;47.208;7.518;2022-07-29T13:01:03;26.00;91.90
38941;DHT22;43236;47.208;7.518;2022-07-29T13:03:53;25.90;92.80
38941;DHT22;43236;47.208;7.518;2022-07-29T13:06:43;25.90;92.90
38941;DHT22;43236;47.208;7.518;2022-07-29T13:09:38;25.80;93.30
38941;DHT22;43236;47.208;7.518;2022-07-29T13:12:25;25.90;93.70
38941;DHT22;43236;47.208;7.518;2022-07-29T13:15:14;25.80;92.50
38941;DHT22;43236;47.208;7.518;2022-07-29T13:18:02;25.90;92.80
38941;DHT22;43236;47.208;7.518;2022-07-29T13:20:51;25.80;93.70
38941;DHT22;43236;47.208;7.518;2022-07-29T13:23:38;25.80;94.50
38941;DHT22;43236;47.208;7.518;2022-07-29T13:26:26;25.70;95.60
38941;DHT22;43236;47.208;7.518;2022-07-29T13:29:13;25.60;96.70
38941;DHT22;43236;47.208;7.518;2022-07-29T13:32:00;25.60;97.20
38941;DHT22;43236;47.208;7.518;2022-07-29T13:34:47;25.50;98.30
38941;DHT22;43236;47.208;7.518;2022-07-29T13:37:36;25.40;98.40
38941;DHT22;43236;47.208;7.518;2022-07-29T13:40:24;25.20;96.20
38941;DHT22;43236;47.208;7.518;2022-07-29T13:43:11;24.90;96.20
38941;DHT22;43236;47.208;7.518;2022-07-29T13:45:58;24.70;97.30
38941;DHT22;43236;47.208;7.518;2022-07-29T13:48:45;24.60;98.70
38941;DHT22;43236;47.208;7.518;2022-07-29T13:51:32;24.40;99.10
38941;DHT22;43236;47.208;7.518;2022-07-29T13:54:21;24.30;99.30
38941;DHT22;43236;47.208;7.518;2022-07-29T13:57:08;24.20;99.60
38941;DHT22;43236;47.208;7.518;2022-07-29T13:59:56;24.10;99.60
38941;DHT22;43236;47.208;7.518;2022-07-29T14:02:43;24.10;99.10
38941;DHT22;43236;47.208;7.518;2022-07-29T14:05:30;24.10;98.60
38941;DHT22;43236;47.208;7.518;2022-07-29T14:08:17;23.90;99.30
38941;DHT22;43236;47.208;7.518;2022-07-29T14:11:05;23.90;99.90
38941;DHT22;43236;47.208;7.518;2022-07-29T14:13:53;23.70;99.90
38941;DHT22;43236;47.208;7.518;2022-07-29T14:16:40;23.70;99.90
38941;DHT22;43236;47.208;7.518;2022-07-29T14:19:28;23.60;99.90
38941;DHT22;43236;47.208;7.518;2022-07-29T14:22:15;23.50;99.90
38941;DHT22;43236;47.208;7.518;2022-07-29T14:25:05;23.40;99.90
38941;DHT22;43236;47.208;7.518;2022-07-29T14:27:54;23.40;99.90
38941;DHT22;43236;47.208;7.518;2022-07-29T14:30:41;23.40;99.90
38941;DHT22;43236;47.208;7.518;2022-07-29T14:33:28;23.40;99.90
38941;DHT22;43236;47.208;7.518;2022-07-29T14:36:15;23.40;99.90
38941;DHT22;43236;47.208;7.518;2022-07-29T14:39:02;23.50;99.90
38941;DHT22;43236;47.208;7.518;2022-07-29T14:41:50;23.50;99.90
38941;DHT22;43236;47.208;7.518;2022-07-29T14:44:39;23.60;99.90
38941;DHT22;43236;47.208;7.518;2022-07-29T14:47:26;23.70;99.90
38941;DHT22;43236;47.208;7.518;2022-07-29T14:50:13;23.80;99.90
38941;DHT22;43236;47.208;7.518;2022-07-29T14:53:00;24.00;99.90
38941;DHT22;43236;47.208;7.518;2022-07-29T14:55:48;24.10;99.90
38941;DHT22;43236;47.208;7.518;2022-07-29T14:58:35;24.30;99.90
38941;DHT22;43236;47.208;7.518;2022-07-29T15:01:24;24.30;99.90
38941;DHT22;43236;47.208;7.518;2022-07-29T15:04:11;24.40;99.90
38941;DHT22;43236;47.208;7.518;2022-07-29T15:06:58;24.50;99.90
38941;DHT22;43236;47.208;7.518;2022-07-29T15:09:46;24.50;99.90
38941;DHT22;43236;47.208;7.518;2022-07-29T15:12:33;24.50;99.90
38941;DHT22;43236;47.208;7.518;2022-07-29T15:15:20;24.60;99.90
38941;DHT22;43236;47.208;7.518;2022-07-29T15:18:09;24.60;99.90
38941;DHT22;43236;47.208;7.518;2022-07-29T15:20:56;24.70;99.90
38941;DHT22;43236;47.208;7.518;2022-07-29T15:23:43;24.70;99.90
38941;DHT22;43236;47.208;7.518;2022-07-29T15:26:30;24.70;99.90
38941;DHT22;43236;47.208;7.518;2022-07-29T15:29:17;24.70;99.90
38941;DHT22;43236;47.208;7.518;2022-07-29T15:32:05;24.80;99.90
38941;DHT22;43236;47.208;7.518;2022-07-29T15:34:53;24.90;99.90
38941;DHT22;43236;47.208;7.518;2022-07-29T15:37:41;25.00;99.90
38941;DHT22;43236;47.208;7.518;2022-07-29T15:40:28;25.10;99.90
38941;DHT22;43236;47.208;7.518;2022-07-29T15:43:15;25.30;99.90
38941;DHT22;43236;47.208;7.518;2022-07-29T15:46:02;25.40;99.90
38941;DHT22;43236;47.208;7.518;2022-07-29T15:49:07;25.60;99.90
38941;DHT22;43236;47.208;7.518;2022-07-29T15:51:55;25.70;99.90
38941;DHT22;43236;47.208;7.518;2022-07-29T15:54:43;25.90;99.90
38941;DHT22;43236;47.208;7.518;2022-07-29T15:57:30;26.10;99.90
38941;DHT22;43236;47.208;7.518;2022-07-29T16:00:17;26.10;99.30
38941;DHT22;43236;47.208;7.518;2022-07-29T16:03:04;26.10;99.40
38941;DHT22;43236;47.208;7.518;2022-07-29T16:05:51;26.00;98.10
38941;DHT22;43236;47.208;7.518;2022-07-29T16:08:40;25.90;98.90
38941;DHT22;43236;47.208;7.518;2022-07-29T16:11:27;25.80;99.90
38941;DHT22;43236;47.208;7.518;2022-07-29T16:14:14;25.80;99.90
38941;DHT22;43236;47.208;7.518;2022-07-29T16:17:01;25.70;99.90
38941;DHT22;43236;47.208;7.518;2022-07-29T16:19:48;25.70;98.40
38941;DHT22;43236;47.208;7.518;2022-07-29T16:22:35;25.60;99.20
38941;DHT22;43236;47.208;7.518;2022-07-29T16:25:24;25.50;98.10
38941;DHT22;43236;47.208;7.518;2022-07-29T16:28:11;25.50;98.90
38941;DHT22;43236;47.208;7.518;2022-07-29T16:30:58;25.50;99.30
38941;DHT22;43236;47.208;7.518;2022-07-29T16:33:45;25.40;99.90
38941;DHT22;43236;47.208;7.518;2022-07-29T16:36:32;25.30;99.90
38941;DHT22;43236;47.208;7.518;2022-07-29T16:39:19;25.30;99.90
38941;DHT22;43236;47.208;7.518;2022-07-29T16:42:08;25.30;99.90
38941;DHT22;43236;47.208;7.518;2022-07-29T16:44:55;25.20;99.90
38941;DHT22;43236;47.208;7.518;2022-07-29T16:47:42;25.20;99.90
38941;DHT22;43236;47.208;7.518;2022-07-29T16:50:29;25.00;99.90
38941;DHT22;43236;47.208;7.518;2022-07-29T16:53:17;25.00;99.90
38941;DHT22;43236;47.208;7.518;2022-07-29T16:56:04;24.90;99.90
38941;DHT22;43236;47.208;7.518;2022-07-29T16:58:53;24.90;99.90
38941;DHT22;43236;47.208;7.518;2022-07-29T17:01:40;24.90;99.90
38941;DHT22;43236;47.208;7.518;2022-07-29T17:04:27;24.90;99.90
38941;DHT22;43236;47.208;7.518;2022-07-29T17:07:14;24.90;99.90
38941;DHT22;43236;47.208;7.518;2022-07-29T17:10:01;24.90;99.90
38941;DHT22;43236;47.208;7.518;2022-07-29T17:12:50;25.00;99.90
38941;DHT22;43236;47.208;7.518;2022-07-29T17:15:38;25.10;99.90
38941;DHT22;43236;47.208;7.518;2022-07-29T17:18:27;25.40;99.90
38941;DHT22;43236;47.208;7.518;2022-07-29T17:21:15;25.80;99.90
38941;DHT22;43236;47.208;7.518;2022-07-29T17:24:03;26.70;99.50
38941;DHT22;43236;47.208;7.518;2022-07-29T17:26:50;26.50;98.30
38941;DHT22;43236;47.208;7.518;2022-07-29T17:29:37;26.30;98.50
38941;DHT22;43236;47.208;7.518;2022-07-29T17:32:26;26.00;98.10
38941;DHT22;43236;47.208;7.518;2022-07-29T17:35:13;25.70;98.80
38941;DHT22;43236;47.208;7.518;2022-07-29T17:38:18;25.50;99.30
38941;DHT22;43236;47.208;7.518;2022-07-29T17:41:05;25.30;99.60
38941;DHT22;43236;47.208;7.518;2022-07-29T17:43:52;25.10;99.90
38941;DHT22;43236;47.208;7.518;2022-07-29T17:46:40;25.10;99.90
38941;DHT22;43236;47.208;7.518;2022-07-29T17:49:28;25.00;99.90